»·PEaware :: N2822D KBTY-KVGT

N2822D :: KBTY-KVGT

FLIGHT INFORMATION

Flight Status: Arrived
Operator: Privately registered:
United States
More flights under this callsign
Pilot: Alex C. (14758)
Aircraft: BEECH AIRCRAFT BARON
(BE58)
More flights by this aircraft type
Origin: KBTY Beatty
United States
Destination: KVGT North Las Vegas
United States
More flights between these airports :: More routes between these airports
Route: +V105 LAS
File this flight plan on PilotEdge
Remarks: / / G
Altitude:
(Current/Filed)
11,000ft
Speed:
(Current/Filed)
200kts
Departed: 27-Dec-17 06:47 PM
Arrived: 27-Dec-17 07:45 PM
Distance/Time
Traveled:
86nm/0:58
Distance/Time
To Go:
Arrived

Flight Plot

Page will automatically refresh every two minutes.

Flight plan parsing failed; only flown route is shown


Map Options




Map Legend


Flown Route
Filed Route
Departure Airport
Arrival Airport
Navaid (VOR, NDB)
Fix

Horizontal Profiles

Position Reports

Time Latitude Longitude Heading Altitude Ground
Speed
27-Dec-17 18:32 36.868403 -116.784846 88 3172ft 0kts
27-Dec-17 18:33 36.868403 -116.784846 88 3172ft 0kts
27-Dec-17 18:34 36.868403 -116.784846 88 3172ft 0kts
27-Dec-17 18:35 36.868403 -116.784846 88 3172ft 0kts
27-Dec-17 18:36 36.868403 -116.784846 88 3172ft 0kts
27-Dec-17 18:37 36.868403 -116.784846 88 3172ft 0kts
27-Dec-17 18:38 36.868403 -116.784846 88 3172ft 0kts
27-Dec-17 18:45 36.868403 -116.784846 88 3172ft 0kts
27-Dec-17 18:46 36.868403 -116.784846 88 3172ft 0kts
27-Dec-17 18:47 36.868403 -116.784846 88 3172ft 0kts
27-Dec-17 18:48 36.868403 -116.784846 88 3172ft 0kts
27-Dec-17 18:49 36.868403 -116.784846 88 3172ft 0kts
27-Dec-17 18:50 36.868405 -116.784190 39 3172ft 5kts
27-Dec-17 18:51 36.868714 -116.786291 225 3172ft 7kts
27-Dec-17 18:52 36.868524 -116.786388 180 3172ft 0kts
27-Dec-17 18:53 36.864622 -116.786347 179 3172ft 93kts
27-Dec-17 18:54 36.834926 -116.779730 137 5017ft 116kts
27-Dec-17 18:55 36.813980 -116.759671 148 6838ft 117kts
27-Dec-17 18:56 36.799288 -116.746935 134 8056ft 121kts
27-Dec-17 18:57 36.787037 -116.728738 132 9305ft 124kts
27-Dec-17 18:58 36.774462 -116.710390 133 10547ft 126kts
27-Dec-17 18:59 36.761208 -116.691390 133 11231ft 152kts
27-Dec-17 19:00 36.744788 -116.668001 132 11240ft 180kts
27-Dec-17 19:01 36.726346 -116.641655 132 11233ft 191kts
27-Dec-17 19:02 36.705150 -116.611394 132 11230ft 196kts
27-Dec-17 19:03 36.685453 -116.583364 132 11016ft 205kts
27-Dec-17 19:04 36.666775 -116.556747 132 11009ft 204kts
27-Dec-17 19:05 36.647844 -116.529794 132 11009ft 204kts
27-Dec-17 19:06 36.629072 -116.503122 132 11009ft 204kts
27-Dec-17 19:07 36.610239 -116.476392 132 11009ft 204kts
27-Dec-17 19:08 36.592344 -116.451014 132 11009ft 204kts
27-Dec-17 19:09 36.573194 -116.423877 132 11009ft 204kts
27-Dec-17 19:10 36.554320 -116.397153 132 11009ft 204kts
27-Dec-17 19:11 36.537043 -116.372663 132 11424ft 184kts
27-Dec-17 19:12 36.517679 -116.360611 170 12098ft 157kts
27-Dec-17 19:13 36.498520 -116.355733 170 12785ft 140kts
27-Dec-17 19:14 36.474444 -116.350159 171 13039ft 167kts
27-Dec-17 19:15 36.429214 -116.340197 171 13032ft 194kts
27-Dec-17 19:16 36.379469 -116.329382 171 13028ft 201kts
27-Dec-17 19:17 36.331754 -116.304097 134 13030ft 204kts
27-Dec-17 19:18 36.290099 -116.258653 142 13027ft 206kts
27-Dec-17 19:19 36.246071 -116.216191 143 13027ft 206kts
27-Dec-17 19:20 36.208878 -116.180812 143 13027ft 206kts
27-Dec-17 19:21 36.164667 -116.138889 143 13027ft 206kts
27-Dec-17 19:22 36.120145 -116.096755 143 13027ft 206kts
27-Dec-17 19:23 36.075258 -116.054337 143 13027ft 206kts
27-Dec-17 19:24 36.032305 -116.009997 111 13016ft 206kts
27-Dec-17 19:25 36.032938 -115.941268 84 13028ft 206kts
27-Dec-17 19:26 36.037132 -115.872787 84 13026ft 206kts
27-Dec-17 19:27 36.041348 -115.805159 84 13024ft 206kts
27-Dec-17 19:28 36.045523 -115.737726 84 12661ft 219kts
27-Dec-17 19:29 36.049753 -115.668532 84 12127ft 224kts
27-Dec-17 19:30 36.053854 -115.600850 84 11605ft 225kts
27-Dec-17 19:31 36.057913 -115.533442 84 11083ft 224kts
27-Dec-17 19:32 36.061773 -115.468497 84 11017ft 211kts
27-Dec-17 19:33 36.064867 -115.416569 84 11018ft 206kts
27-Dec-17 19:34 36.067654 -115.369104 84 10919ft 208kts
27-Dec-17 19:35 36.070137 -115.327762 82 10531ft 215kts
27-Dec-17 19:36 36.078019 -115.295085 70 10196ft 202kts
27-Dec-17 19:37 36.085127 -115.267882 71 9867ft 182kts
27-Dec-17 19:38 36.089018 -115.252900 71 9674ft 175kts
27-Dec-17 19:39 36.093300 -115.236443 70 9442ft 157kts
27-Dec-17 19:40 36.096648 -115.223397 71 9246ft 125kts
27-Dec-17 19:41 36.099138 -115.213505 71 8918ft 117kts
27-Dec-17 19:42 36.101552 -115.203899 71 8488ft 117kts
27-Dec-17 19:43 36.104231 -115.193249 70 7952ft 114kts
27-Dec-17 19:44 36.110696 -115.178120 50 7043ft 110kts
27-Dec-17 19:45 36.123634 -115.172985 0 6118ft 104kts
27-Dec-17 19:46 36.136793 -115.172890 2 5287ft 105kts
27-Dec-17 19:47 36.151199 -115.171915 4 4362ft 111kts
27-Dec-17 19:48 36.168939 -115.170676 359 3385ft 123kts
27-Dec-17 19:49 36.188186 -115.173084 340 2786ft 116kts
27-Dec-17 19:50 36.201727 -115.186327 315 2317ft 95kts
27-Dec-17 19:51 36.210255 -115.197073 314 2208ft 34kts
27-Dec-17 19:52 36.209623 -115.198927 214 2208ft 0kts

Navigation Log

Ident Type
Flight plan parsing failed, navigation log unavailable